YXWW weather

Wee Waa Hospital Helipad
Wee Waa, New South Wales, Australia

Public forecast

Using degrees Celsius for public forecast. Weather courtesy of forecast.io.

METAR (pilot weather report)

Closest report is Narrabri Airport, 20.4 nm (37.8 km) ESE. Retrieved 2019/06/19 08:00 UTC (6 minutes ago):

YNBR 190800Z AUTO 14006KT 9999 // NCD 12/M03 Q1021

TAF (pilot weather forecast)

Closest forecast is Tamworth Airport, 88.8 nm (164.4 km) SE. Retrieved 2019/06/19 06:36 UTC (1 hour ago):

TAF TAF YSTW 190534Z 1906/1924 23007KT CAVOK BECMG 1909/1911 12005KT CAVOK PROB30 1918/1922 0500 FG